Fernando Martinez

Chief Scout - Atletico Venezuela
17 Feb 2028
Thursday
Process

Personality

Adaptability (16) Ambition (8) Controversy (7) Loyalty (13) Pressure (8) Professionalism (9) Sportsmanship (18) Temperament (17)

Profile

Coaching Style Democratic
License Continental B
Determination 8
Man Management 10
Motivating 3
Discipline 10
Job Satisfaction
100%
Fatigue
0%
Role Chief Scout
Wage 37.5K p/w
Contract 14.03.2030

Performance

Behaviour Good
Training Effectiveness
33%
Player Development
45%
Injury Prevention
25%
Tactical Implementation
20%

Recent Events

Assessed a player now
Recommended a transfer target 7d ago
Assessed a player 7d ago
Assessed a player 7d ago
Assessed a player 7d ago
Assessed a player 7d ago
Assessed a player 7d ago
Assessed a player 7d ago

Currently Monitoring

141
Player Club Status Ability Confidence Watched Last Observed Latest Vote
Jake Eastwood Cambridge United Active 95 / 89 40% 1 14.02.2028 -
Facundo Centurión Znamya Truda Active 92 / 88 40% 1 14.02.2028 -
Nicolas Schmid Portsmouth Active 122 / 119 40% 1 14.02.2028 -
Filip Stanković Virtus Entella Active 131 / 136 40% 2 13.02.2028 -
Fabrizio Alastra Altamura Active 109 / 112 40% 1 13.02.2028 -
Ivan Lomaev Ufa Active 127 / 121 40% 1 13.02.2028 -
Stephen McMullan Fleetwood Town Active 98 / 98 40% 2 12.02.2028 -
Matteo Soncin Campobasso Active 105 / 100 40% 1 12.02.2028 -
Jake Turner Gillingham Active 108 / 94 40% 1 12.02.2028 -
Gianluca Saro Foggia Active 124 / 112 40% 1 11.02.2028 -
Luke Southwood Bristol Rovers Active 116 / 100 40% 1 10.02.2028 -
Islam Imamov SKA Khabarovsk Active 110 / 87 40% 1 10.02.2028 -
Daniil Frolkin Fakel Active 114 / 110 40% 1 09.02.2028 -
Timur Magomedov Dinamo Makhachkala Active 107 / 108 40% 1 09.02.2028 -
Zach Hemming Chesterfield Active 130 / 113 40% 1 09.02.2028 -
Vladislav Zernaev Salyut Active 81 / 95 40% 1 08.02.2028 -
Alfie Marriott Legion Active 79 / 88 40% 1 08.02.2028 -
Matteo Sorzi Carpi Active 106 / 100 40% 1 08.02.2028 -
Will Dennis Milton Keynes Dons Active 112 / 131 40% 1 07.02.2028 -
Tommaso Nobile Renate Active 110 / 113 40% 1 07.02.2028 -
Francesco D'Alterio Ternana Active 108 / 110 40% 1 07.02.2028 -
Nahuel Pezzini Arsenal Active 112 / 111 40% 2 27.12.2027 -
Víctor Saya Deportivo La Guaira Report Ready 72 / 87 69% 1 27.12.2027 -
Nahuel Galardi Maipú Negotiating 119 / 115 40% 1 27.12.2027 -
Joaquín Bigo Tristán Suárez Active 115 / 107 40% 1 27.12.2027 -
Franco Carretero Deportivo Lara Negotiating 110 / 104 40% 1 20.12.2027 -
Michele Di Gregorio Juventus Active 155 / 164 40% 1 20.12.2027 -
George Wickens Lincoln City Active 136 / 132 40% 1 20.12.2027 -
Cristopher Varela Deportivo La Guaira Active 120 / 123 40% 1 13.12.2027 -
Agustín Lastra Estudiantes Negotiating 119 / 109 40% 1 13.12.2027 -
Dino Trotta Deportivo La Guaira Negotiating 81 / 82 69% 1 01.12.2027 -
Agustín Módica Gimnasia y Esgrima Active 125 / 128 40% 1 01.12.2027 -
Carlos Torres Orenburg Active 105 / 93 40% 1 01.12.2027 -
Juan Rocca Gimnasia y Tiro Active 118 / 110 40% 1 01.12.2027 -
Naygers Flores Deportivo La Guaira Active 86 / 86 69% 1 01.06.2027 Approve
Sergio Carrasco Cobresal Active 98 / 96 40% 1 01.06.2027 -
Sebastián Cocimano Nueva Chicago Active 108 / 110 40% 1 01.06.2027 -
Alexander Díaz Deportivo Riestra Active 114 / 116 40% 1 01.06.2027 -
Louis Appéré Cambridge United Active 93 / 101 40% 1 27.11.2026 -
Matty Stevens AFC Wimbledon Active 105 / 96 40% 1 27.11.2026 -
Lee Bonis Chesterfield Active 95 / 116 40% 2 26.11.2026 -
Jonás Luna Santa Clara Active 118 / 108 40% 1 26.11.2026 -
Vyacheslav Grulev Nizhniy Novgorod Active 107 / 112 40% 3 25.11.2026 -
Anderson Gutiérrez Chelyabinsk Active 96 / 97 40% 1 25.11.2026 -
Nathan Ordaz Metalist Active 100 / 104 40% 1 24.11.2026 -
Sonny Perkins Leyton Orient Active 84 / 100 40% 1 24.11.2026 -
Breel Embolo Atlanta United FC Active 147 / 133 40% 5 21.11.2026 -
Isaac Matondo Koper Active 98 / 90 40% 1 20.11.2026 -
Sebastián Ybares Neftekhimik Active 92 / 98 40% 1 17.11.2026 -
Ekain Orobengoa Real Sociedad Active 94 / 91 40% 3 14.11.2026 -
Alexandr Saplinov Volga Active 99 / 95 40% 1 10.11.2026 -
Johnly Yfeko Exeter City Active 102 / 103 40% 1 10.11.2026 -
Job Ochieng Real Sociedad Active 115 / 94 40% 3 08.11.2026 -
Eduardo Armenta Ufa Active 92 / 91 40% 1 07.11.2026 -
Kenan Dervišagić Floriana Active 108 / 103 40% 2 06.11.2026 -
Axel Pérez NK Domzale Active 96 / 114 40% 1 06.11.2026 -
Fabricio Oviedo Rosario Central Active 100 / 117 40% 1 04.11.2026 -
Stephen Humphrys Bradford City Active 102 / 96 40% 2 03.11.2026 -
Sergio Riffo NK Zavrc Active 104 / 103 40% 3 01.11.2026 -
Kamran Aliev SKA Khabarovsk Active 111 / 106 40% 1 30.10.2026 -
Jhon Flor Sokol Active 78 / 105 40% 1 30.10.2026 -
Juan Manuel Jorge Defensor Sporting Active 109 / 109 40% 1 30.10.2026 -
Esteven Salguero Patriotas Active 105 / 99 40% 2 28.10.2026 -
Marcus Browne AFC Wimbledon Active 112 / 89 40% 2 27.10.2026 -
Mario García Racing Santander Active 114 / 128 40% 2 27.10.2026 -
Luka Kurtovic NK Domzale Active 121 / 113 40% 4 26.10.2026 -
Yeangel Montero Naxxar Lions Active 101 / 118 40% 1 26.10.2026 -
Aldahir Pérez Tijuana Active 102 / 122 40% 1 25.10.2026 -
Mauro Smarra Deportivo Riestra Active 106 / 108 40% 1 24.10.2026 -
Milton Castagna Neftekhimik Active 104 / 91 40% 1 23.10.2026 -
Sam Nombe Milton Keynes Dons Active 119 / 99 40% 2 21.10.2026 -
Gaspar Duarte Rosario Central Active 114 / 115 40% 2 20.10.2026 -
Robert Murić Floriana Active 101 / 117 40% 1 20.10.2026 -
Diego Valencia Universidad Catolica Active 110 / 105 40% 3 19.10.2026 -
Martin Sekulić Ural Active 116 / 109 40% 3 19.10.2026 -
Milan Tučić ND Gorica Active 95 / 107 40% 1 19.10.2026 -
Gabriel Jesus Barcelona Active 165 / 162 40% 6 18.10.2026 -
Diego Méndez Tacuarembo Active 85 / 87 40% 5 17.10.2026 -
Facundo Pimienta Atlético Tucumán Active 89 / 101 40% 1 15.10.2026 -
Joaquín Rivero Instituto Active 87 / 92 40% 3 13.10.2026 -
Thiago Ponce Rosario Central Active 97 / 101 40% 1 12.10.2026 -
Ignacio Sabatini Gimnasia y Esgrima Active 100 / 109 40% 1 10.10.2026 -
Gorka Gorosabel Real Sociedad Active 99 / 130 40% 1 09.10.2026 -
Vladimir Khubulov Dinamo Makhachkala Active 104 / 123 40% 1 09.10.2026 -
Manprit Sarkaria Austria Wien Active 126 / 129 40% 1 08.10.2026 -
Luis Rojas Universidad de Concepcion Active 92 / 93 40% 2 02.10.2026 -
Cristhofer Mesías Universidad de Concepcion Active 95 / 109 40% 1 30.09.2026 -
Juan Salas Patronato Active 113 / 117 40% 1 30.09.2026 -
Mariano Bracamonte Deportivo Riestra Active 113 / 116 40% 2 29.09.2026 -
Kyle Joseph Middlesbrough Active 104 / 113 40% 2 26.09.2026 -
Bojan Radulović Huddersfield Town Active 117 / 101 40% 1 25.09.2026 -
Luca Babino Huracán Active 115 / 113 40% 1 25.09.2026 -
Amadou Diawara Leganés Active 112 / 122 40% 1 25.09.2026 -
Carlos Rosel Grodig Active 92 / 98 40% 1 23.09.2026 -
Lautaro Mora Huracán Active 102 / 121 40% 1 23.09.2026 -
Lewis McCann Fleetwood Town Active 98 / 102 40% 1 21.09.2026 -
Lautaro Quiroga Defensa y Justicia Active 97 / 108 40% 1 21.09.2026 -
Tomás Orqueida Mattersburg Active 108 / 96 40% 1 17.09.2026 -
David Barrero Nizhniy Novgorod Active 95 / 83 40% 1 16.09.2026 -
Duván Mósquera Aguilas Doradas Active 111 / 108 40% 1 16.09.2026 -
Facundo Pérez Juventud Active 96 / 105 40% 1 15.09.2026 -
Lander Astiazarán Real Sociedad Active 113 / 111 40% 1 15.09.2026 -
Galo Galarza Estudiantes Active 91 / 96 40% 1 15.09.2026 -
Juan Román Zarza BK Hacken Active 90 / 88 40% 1 14.09.2026 -
Maximo Ingravidi Colón Active 95 / 113 40% 1 13.09.2026 -
Bruno Hernández Cerro Largo Active 91 / 97 40% 1 11.09.2026 -
Alexis Dulón Huracán Active 87 / 91 40% 1 11.09.2026 -
Tomás Romero Unión de Santa Fe Active 91 / 101 40% 1 11.09.2026 -
Cristhian Medina Dinamo Brest Active 86 / 88 40% 1 01.09.2026 -
Marcos Camarda Santiago Wanderers Active 100 / 104 40% 4 31.08.2026 -
Agustín Zabaleta Chaco For Ever Active 95 / 88 40% 1 31.08.2026 -
Gonzalo Tapia Palestino Active 100 / 101 40% 1 31.08.2026 -
Agustín Fernández NK Zavrc Active 84 / 92 40% 1 30.08.2026 -
Richard Celis Zamora Active 100 / 117 40% 1 30.08.2026 -
Jandro Orellana Cádiz Active 118 / 104 40% 1 30.08.2026 -
Gonzalo Larrazábal Deportivo Maldonado Active 94 / 90 40% 1 28.08.2026 -
Gonzalo Aguirre Cienciano Active 93 / 96 40% 1 28.08.2026 -
Jeriel De Santis Caracas Active 99 / 95 40% 1 27.08.2026 -
Adalberto Peñaranda Deportivo Tachira Active 113 / 105 40% 2 26.08.2026 -
Junior Paredes Trujillanos Active 92 / 107 40% 1 25.08.2026 -
Kavier Ortiz Metropolitanos Active 99 / 103 40% 1 25.08.2026 -
Francisco Galván Deportivo Municipal Active 103 / 99 40% 2 18.08.2026 -
Tadeo Polli San Martín Active 92 / 88 40% 1 18.08.2026 -
Tobías Bovone Deportivo Pereira Active 114 / 109 40% 1 16.08.2026 -
Gerónimo Tomasetti Temperley Active 112 / 115 40% 1 16.08.2026 -
Tomás Galván River Plate Active 118 / 115 40% 1 15.08.2026 -
Franco Sivetti Gimnasia y Tiro Active 113 / 102 40% 1 15.08.2026 -
Jules-Anthony Vilsaint Toronto FC Active 106 / 105 40% 1 12.08.2026 -
Ramiro Ruiz Rodríguez Atlético Tucumán Active 125 / 112 40% 1 11.08.2026 -
Bruno Gomes Valletta Active 85 / 108 40% 1 10.08.2026 -
Hakeeb Adelakun Doncaster Rovers Active 98 / 117 40% 1 10.08.2026 -
Joaquín Zappacosta Morón Active 86 / 87 40% 1 09.08.2026 -
Cristian Núñez Huracán Active 107 / 114 40% 1 06.08.2026 -
Jano Franco Independiente Rivadavia Active 92 / 82 40% 1 06.08.2026 -
Jeremy Rafanello Philadelphia Union Active 93 / 101 40% 1 05.08.2026 -
Alassana Jatta Notts County Active 105 / 119 40% 2 04.08.2026 -
Elías Ovelar Dinamo Brest Active 96 / 83 40% 1 04.08.2026 -
Martín Pino Godoy Cruz Active 114 / 106 40% 1 02.08.2026 -
Joe Abrigo Palestino Active 118 / 115 40% 1 02.08.2026 -
David Barbona Defensa y Justicia Active 120 / 113 40% 1 01.08.2026 -
Pablo Durán Celta Active 124 / 122 40% 1 01.08.2026 -